sensor_id;sensor_type;location;lat;lon;timestamp;P1;durP1;ratioP1;P2;durP2;ratioP2
54139;SDS011;40046;53.254;5.900;2023-02-11T00:01:35;22.02;;;6.78;;
54139;SDS011;40046;53.254;5.900;2023-02-11T00:04:01;30.58;;;7.97;;
54139;SDS011;40046;53.254;5.900;2023-02-11T00:06:28;22.02;;;6.53;;
54139;SDS011;40046;53.254;5.900;2023-02-11T00:08:56;36.20;;;8.55;;
54139;SDS011;40046;53.254;5.900;2023-02-11T00:11:23;24.48;;;7.47;;
54139;SDS011;40046;53.254;5.900;2023-02-11T00:13:59;29.85;;;7.60;;
54139;SDS011;40046;53.254;5.900;2023-02-11T00:16:26;36.30;;;8.43;;
54139;SDS011;40046;53.254;5.900;2023-02-11T00:18:53;27.15;;;7.40;;
54139;SDS011;40046;53.254;5.900;2023-02-11T00:21:23;30.50;;;9.88;;
54139;SDS011;40046;53.254;5.900;2023-02-11T00:23:50;34.28;;;7.97;;
54139;SDS011;40046;53.254;5.900;2023-02-11T00:26:18;31.75;;;10.15;;
54139;SDS011;40046;53.254;5.900;2023-02-11T00:28:45;28.60;;;11.23;;
54139;SDS011;40046;53.254;5.900;2023-02-11T00:31:11;28.23;;;8.73;;
54139;SDS011;40046;53.254;5.900;2023-02-11T00:33:38;26.60;;;8.95;;
54139;SDS011;40046;53.254;5.900;2023-02-11T00:36:05;27.40;;;9.35;;
54139;SDS011;40046;53.254;5.900;2023-02-11T00:38:32;36.88;;;8.48;;
54139;SDS011;40046;53.254;5.900;2023-02-11T00:40:58;28.55;;;10.30;;
54139;SDS011;40046;53.254;5.900;2023-02-11T00:43:24;27.02;;;9.10;;
54139;SDS011;40046;53.254;5.900;2023-02-11T00:45:50;24.23;;;9.13;;
54139;SDS011;40046;53.254;5.900;2023-02-11T00:48:17;32.25;;;9.35;;
54139;SDS011;40046;53.254;5.900;2023-02-11T00:50:43;38.97;;;10.85;;
54139;SDS011;40046;53.254;5.900;2023-02-11T00:53:09;30.00;;;11.07;;
54139;SDS011;40046;53.254;5.900;2023-02-11T00:55:37;28.35;;;10.77;;
54139;SDS011;40046;53.254;5.900;2023-02-11T00:58:03;29.38;;;9.10;;
54139;SDS011;40046;53.254;5.900;2023-02-11T01:00:29;29.67;;;10.50;;
54139;SDS011;40046;53.254;5.900;2023-02-11T01:02:55;27.17;;;9.95;;
54139;SDS011;40046;53.254;5.900;2023-02-11T01:05:21;33.10;;;11.68;;
54139;SDS011;40046;53.254;5.900;2023-02-11T01:07:47;33.45;;;12.70;;
54139;SDS011;40046;53.254;5.900;2023-02-11T01:10:14;33.75;;;10.90;;
54139;SDS011;40046;53.254;5.900;2023-02-11T01:12:41;29.20;;;11.80;;
54139;SDS011;40046;53.254;5.900;2023-02-11T01:15:07;27.05;;;12.27;;
54139;SDS011;40046;53.254;5.900;2023-02-11T01:17:36;32.85;;;11.45;;
54139;SDS011;40046;53.254;5.900;2023-02-11T01:20:06;34.55;;;12.63;;
54139;SDS011;40046;53.254;5.900;2023-02-11T01:22:32;28.08;;;10.63;;
54139;SDS011;40046;53.254;5.900;2023-02-11T01:25:04;26.15;;;12.48;;
54139;SDS011;40046;53.254;5.900;2023-02-11T01:27:30;29.13;;;13.07;;
54139;SDS011;40046;53.254;5.900;2023-02-11T01:29:56;28.23;;;12.95;;
54139;SDS011;40046;53.254;5.900;2023-02-11T01:32:23;22.77;;;10.95;;
54139;SDS011;40046;53.254;5.900;2023-02-11T01:34:49;31.95;;;12.07;;
54139;SDS011;40046;53.254;5.900;2023-02-11T01:37:15;31.08;;;13.23;;
54139;SDS011;40046;53.254;5.900;2023-02-11T01:39:41;29.42;;;13.32;;
54139;SDS011;40046;53.254;5.900;2023-02-11T01:42:10;29.73;;;12.80;;
54139;SDS011;40046;53.254;5.900;2023-02-11T01:44:40;30.98;;;13.73;;
54139;SDS011;40046;53.254;5.900;2023-02-11T01:47:07;25.95;;;13.70;;
54139;SDS011;40046;53.254;5.900;2023-02-11T01:52:48;39.70;;;14.10;;
54139;SDS011;40046;53.254;5.900;2023-02-11T01:54:51;29.77;;;13.65;;
54139;SDS011;40046;53.254;5.900;2023-02-11T01:57:37;30.33;;;13.95;;
54139;SDS011;40046;53.254;5.900;2023-02-11T02:02:43;23.55;;;12.75;;
54139;SDS011;40046;53.254;5.900;2023-02-11T02:06:13;34.33;;;13.60;;
54139;SDS011;40046;53.254;5.900;2023-02-11T02:10:53;34.38;;;14.43;;
54139;SDS011;40046;53.254;5.900;2023-02-11T02:13:21;25.58;;;12.70;;
54139;SDS011;40046;53.254;5.900;2023-02-11T02:16:01;28.77;;;14.25;;
54139;SDS011;40046;53.254;5.900;2023-02-11T02:33:50;34.75;;;16.67;;
54139;SDS011;40046;53.254;5.900;2023-02-11T02:39:24;41.47;;;15.70;;
54139;SDS011;40046;53.254;5.900;2023-02-11T02:41:51;32.20;;;15.57;;
54139;SDS011;40046;53.254;5.900;2023-02-11T02:44:18;33.67;;;16.70;;
54139;SDS011;40046;53.254;5.900;2023-02-11T02:46:45;34.80;;;16.30;;
54139;SDS011;40046;53.254;5.900;2023-02-11T02:49:12;30.63;;;16.02;;
54139;SDS011;40046;53.254;5.900;2023-02-11T03:10:55;38.30;;;15.93;;
54139;SDS011;40046;53.254;5.900;2023-02-11T03:13:23;44.42;;;20.88;;
54139;SDS011;40046;53.254;5.900;2023-02-11T03:15:51;33.97;;;16.20;;
54139;SDS011;40046;53.254;5.900;2023-02-11T03:18:19;35.22;;;17.13;;
54139;SDS011;40046;53.254;5.900;2023-02-11T03:20:48;30.02;;;15.55;;
54139;SDS011;40046;53.254;5.900;2023-02-11T03:23:20;33.33;;;15.95;;
54139;SDS011;40046;53.254;5.900;2023-02-11T03:25:54;34.03;;;17.55;;
54139;SDS011;40046;53.254;5.900;2023-02-11T03:28:31;31.80;;;16.17;;
54139;SDS011;40046;53.254;5.900;2023-02-11T03:31:03;35.08;;;16.48;;
54139;SDS011;40046;53.254;5.900;2023-02-11T03:36:14;37.42;;;18.70;;
54139;SDS011;40046;53.254;5.900;2023-02-11T03:38:44;35.22;;;16.63;;
54139;SDS011;40046;53.254;5.900;2023-02-11T03:41:11;33.60;;;17.90;;
54139;SDS011;40046;53.254;5.900;2023-02-11T03:43:44;36.88;;;17.80;;
54139;SDS011;40046;53.254;5.900;2023-02-11T03:46:11;29.92;;;16.70;;
54139;SDS011;40046;53.254;5.900;2023-02-11T03:48:39;32.55;;;18.48;;
54139;SDS011;40046;53.254;5.900;2023-02-11T03:51:07;25.95;;;17.70;;
54139;SDS011;40046;53.254;5.900;2023-02-11T03:53:35;28.35;;;16.25;;
54139;SDS011;40046;53.254;5.900;2023-02-11T03:56:03;33.17;;;16.73;;
54139;SDS011;40046;53.254;5.900;2023-02-11T03:58:30;31.15;;;15.48;;
54139;SDS011;40046;53.254;5.900;2023-02-11T04:00:56;30.95;;;15.70;;
54139;SDS011;40046;53.254;5.900;2023-02-11T04:03:23;26.90;;;16.10;;
54139;SDS011;40046;53.254;5.900;2023-02-11T04:05:49;33.65;;;15.00;;
54139;SDS011;40046;53.254;5.900;2023-02-11T04:08:15;35.30;;;18.75;;
54139;SDS011;40046;53.254;5.900;2023-02-11T04:10:41;34.47;;;16.58;;
54139;SDS011;40046;53.254;5.900;2023-02-11T04:13:07;35.25;;;18.23;;
54139;SDS011;40046;53.254;5.900;2023-02-11T04:15:33;33.97;;;16.92;;
54139;SDS011;40046;53.254;5.900;2023-02-11T04:17:59;30.02;;;16.48;;
54139;SDS011;40046;53.254;5.900;2023-02-11T04:20:27;30.38;;;16.77;;
54139;SDS011;40046;53.254;5.900;2023-02-11T04:22:53;38.42;;;18.35;;
54139;SDS011;40046;53.254;5.900;2023-02-11T04:25:22;27.08;;;16.35;;
54139;SDS011;40046;53.254;5.900;2023-02-11T04:27:50;28.80;;;15.10;;
54139;SDS011;40046;53.254;5.900;2023-02-11T04:30:16;30.13;;;17.50;;
54139;SDS011;40046;53.254;5.900;2023-02-11T04:32:42;33.15;;;15.57;;
54139;SDS011;40046;53.254;5.900;2023-02-11T04:35:09;33.35;;;16.52;;
54139;SDS011;40046;53.254;5.900;2023-02-11T04:37:35;31.80;;;15.30;;
54139;SDS011;40046;53.254;5.900;2023-02-11T04:40:01;37.15;;;17.20;;
54139;SDS011;40046;53.254;5.900;2023-02-11T04:42:27;30.63;;;15.50;;
54139;SDS011;40046;53.254;5.900;2023-02-11T04:44:53;29.27;;;14.57;;
54139;SDS011;40046;53.254;5.900;2023-02-11T04:47:19;31.10;;;15.98;;
54139;SDS011;40046;53.254;5.900;2023-02-11T04:49:45;30.23;;;15.40;;
54139;SDS011;40046;53.254;5.900;2023-02-11T04:52:12;25.30;;;15.38;;
54139;SDS011;40046;53.254;5.900;2023-02-11T04:54:38;23.75;;;13.85;;
54139;SDS011;40046;53.254;5.900;2023-02-11T04:57:04;28.30;;;14.98;;
54139;SDS011;40046;53.254;5.900;2023-02-11T04:59:33;28.58;;;14.90;;
54139;SDS011;40046;53.254;5.900;2023-02-11T05:01:59;26.83;;;14.40;;
54139;SDS011;40046;53.254;5.900;2023-02-11T05:04:26;28.98;;;14.25;;
54139;SDS011;40046;53.254;5.900;2023-02-11T05:06:52;25.02;;;14.18;;
54139;SDS011;40046;53.254;5.900;2023-02-11T05:09:18;28.63;;;13.90;;
54139;SDS011;40046;53.254;5.900;2023-02-11T05:11:44;23.13;;;14.70;;
54139;SDS011;40046;53.254;5.900;2023-02-11T05:14:10;32.53;;;15.23;;
54139;SDS011;40046;53.254;5.900;2023-02-11T05:16:36;28.55;;;14.05;;
54139;SDS011;40046;53.254;5.900;2023-02-11T05:19:03;32.65;;;17.35;;
54139;SDS011;40046;53.254;5.900;2023-02-11T05:21:29;35.53;;;16.70;;
54139;SDS011;40046;53.254;5.900;2023-02-11T05:23:55;28.10;;;15.48;;
54139;SDS011;40046;53.254;5.900;2023-02-11T05:26:21;30.15;;;15.85;;
54139;SDS011;40046;53.254;5.900;2023-02-11T05:28:47;33.90;;;15.70;;
54139;SDS011;40046;53.254;5.900;2023-02-11T05:31:13;33.08;;;16.08;;
54139;SDS011;40046;53.254;5.900;2023-02-11T05:33:41;24.55;;;15.20;;
54139;SDS011;40046;53.254;5.900;2023-02-11T05:36:08;27.92;;;14.65;;
54139;SDS011;40046;53.254;5.900;2023-02-11T05:38:35;25.98;;;17.30;;
54139;SDS011;40046;53.254;5.900;2023-02-11T05:41:02;27.92;;;15.35;;
54139;SDS011;40046;53.254;5.900;2023-02-11T05:43:28;28.20;;;16.63;;
54139;SDS011;40046;53.254;5.900;2023-02-11T05:45:54;29.05;;;15.88;;
54139;SDS011;40046;53.254;5.900;2023-02-11T05:48:21;35.35;;;16.25;;
54139;SDS011;40046;53.254;5.900;2023-02-11T05:50:47;32.65;;;16.60;;
54139;SDS011;40046;53.254;5.900;2023-02-11T05:53:14;29.77;;;17.00;;
54139;SDS011;40046;53.254;5.900;2023-02-11T05:55:40;34.58;;;18.48;;
54139;SDS011;40046;53.254;5.900;2023-02-11T05:58:06;24.98;;;16.10;;
54139;SDS011;40046;53.254;5.900;2023-02-11T06:00:32;30.92;;;18.98;;
54139;SDS011;40046;53.254;5.900;2023-02-11T06:02:59;25.88;;;17.25;;
54139;SDS011;40046;53.254;5.900;2023-02-11T06:05:38;35.08;;;16.88;;
54139;SDS011;40046;53.254;5.900;2023-02-11T06:08:26;32.63;;;17.30;;
54139;SDS011;40046;53.254;5.900;2023-02-11T06:10:58;26.48;;;14.98;;
54139;SDS011;40046;53.254;5.900;2023-02-11T06:13:39;32.33;;;15.95;;
54139;SDS011;40046;53.254;5.900;2023-02-11T06:16:16;28.08;;;16.73;;
54139;SDS011;40046;53.254;5.900;2023-02-11T06:19:00;26.70;;;16.02;;
54139;SDS011;40046;53.254;5.900;2023-02-11T06:24:24;30.58;;;16.23;;
54139;SDS011;40046;53.254;5.900;2023-02-11T06:32:55;34.75;;;17.55;;
54139;SDS011;40046;53.254;5.900;2023-02-11T06:35:30;26.73;;;14.70;;
54139;SDS011;40046;53.254;5.900;2023-02-11T06:38:46;34.30;;;15.75;;
54139;SDS011;40046;53.254;5.900;2023-02-11T06:41:29;30.92;;;15.50;;
54139;SDS011;40046;53.254;5.900;2023-02-11T06:44:26;37.20;;;18.60;;
54139;SDS011;40046;53.254;5.900;2023-02-11T06:46:59;27.38;;;14.57;;
54139;SDS011;40046;53.254;5.900;2023-02-11T06:49:33;34.33;;;14.82;;
54139;SDS011;40046;53.254;5.900;2023-02-11T06:52:08;28.52;;;17.27;;
54139;SDS011;40046;53.254;5.900;2023-02-11T06:54:50;35.65;;;18.02;;
54139;SDS011;40046;53.254;5.900;2023-02-11T06:57:28;36.05;;;20.42;;
54139;SDS011;40046;53.254;5.900;2023-02-11T07:00:33;39.90;;;16.88;;
54139;SDS011;40046;53.254;5.900;2023-02-11T07:03:29;33.35;;;16.17;;
54139;SDS011;40046;53.254;5.900;2023-02-11T07:06:07;27.20;;;16.85;;
54139;SDS011;40046;53.254;5.900;2023-02-11T07:08:54;36.67;;;16.23;;
54139;SDS011;40046;53.254;5.900;2023-02-11T07:11:27;28.50;;;15.45;;
54139;SDS011;40046;53.254;5.900;2023-02-11T07:14:06;27.50;;;15.27;;
54139;SDS011;40046;53.254;5.900;2023-02-11T07:16:33;30.05;;;15.82;;
54139;SDS011;40046;53.254;5.900;2023-02-11T07:22:04;24.15;;;13.75;;
54139;SDS011;40046;53.254;5.900;2023-02-11T07:24:33;25.30;;;14.02;;
54139;SDS011;40046;53.254;5.900;2023-02-11T07:33:21;38.65;;;15.55;;
54139;SDS011;40046;53.254;5.900;2023-02-11T07:36:37;31.45;;;13.98;;
54139;SDS011;40046;53.254;5.900;2023-02-11T07:39:43;32.88;;;15.38;;
54139;SDS011;40046;53.254;5.900;2023-02-11T07:42:19;28.33;;;14.20;;
54139;SDS011;40046;53.254;5.900;2023-02-11T07:45:02;27.15;;;14.73;;
54139;SDS011;40046;53.254;5.900;2023-02-11T07:48:18;25.55;;;14.25;;
54139;SDS011;40046;53.254;5.900;2023-02-11T07:50:56;26.52;;;14.43;;
54139;SDS011;40046;53.254;5.900;2023-02-11T07:53:41;34.35;;;16.10;;
54139;SDS011;40046;53.254;5.900;2023-02-11T07:56:19;29.35;;;14.48;;
54139;SDS011;40046;53.254;5.900;2023-02-11T07:59:22;39.35;;;17.13;;
54139;SDS011;40046;53.254;5.900;2023-02-11T08:02:09;30.92;;;14.70;;
54139;SDS011;40046;53.254;5.900;2023-02-11T08:04:47;32.22;;;13.52;;
54139;SDS011;40046;53.254;5.900;2023-02-11T08:07:44;27.23;;;13.75;;
54139;SDS011;40046;53.254;5.900;2023-02-11T08:10:32;23.90;;;13.00;;
54139;SDS011;40046;53.254;5.900;2023-02-11T08:13:10;32.58;;;14.02;;
54139;SDS011;40046;53.254;5.900;2023-02-11T08:15:39;26.98;;;13.85;;
54139;SDS011;40046;53.254;5.900;2023-02-11T08:18:11;25.85;;;13.30;;
54139;SDS011;40046;53.254;5.900;2023-02-11T08:20:46;22.83;;;12.65;;
54139;SDS011;40046;53.254;5.900;2023-02-11T08:23:13;31.27;;;13.85;;
54139;SDS011;40046;53.254;5.900;2023-02-11T08:25:50;29.60;;;13.68;;
54139;SDS011;40046;53.254;5.900;2023-02-11T08:28:16;26.65;;;13.40;;
54139;SDS011;40046;53.254;5.900;2023-02-11T08:30:42;23.77;;;13.90;;
54139;SDS011;40046;53.254;5.900;2023-02-11T08:33:26;26.90;;;12.80;;
54139;SDS011;40046;53.254;5.900;2023-02-11T08:39:18;28.35;;;12.38;;
54139;SDS011;40046;53.254;5.900;2023-02-11T08:41:55;23.27;;;12.32;;
54139;SDS011;40046;53.254;5.900;2023-02-11T08:44:26;28.08;;;13.13;;
54139;SDS011;40046;53.254;5.900;2023-02-11T08:47:03;27.75;;;12.68;;
54139;SDS011;40046;53.254;5.900;2023-02-11T08:49:41;26.85;;;11.25;;
54139;SDS011;40046;53.254;5.900;2023-02-11T08:52:13;20.88;;;11.13;;
54139;SDS011;40046;53.254;5.900;2023-02-11T08:54:51;22.17;;;10.82;;
54139;SDS011;40046;53.254;5.900;2023-02-11T08:57:23;29.67;;;11.43;;
54139;SDS011;40046;53.254;5.900;2023-02-11T09:00:04;21.60;;;11.10;;
54139;SDS011;40046;53.254;5.900;2023-02-11T09:02:33;26.40;;;11.88;;
54139;SDS011;40046;53.254;5.900;2023-02-11T09:05:12;22.10;;;11.48;;
54139;SDS011;40046;53.254;5.900;2023-02-11T09:08:12;27.30;;;10.90;;
54139;SDS011;40046;53.254;5.900;2023-02-11T09:11:07;22.75;;;10.07;;
54139;SDS011;40046;53.254;5.900;2023-02-11T09:13:46;27.65;;;11.68;;
54139;SDS011;40046;53.254;5.900;2023-02-11T09:16:16;30.15;;;9.88;;
54139;SDS011;40046;53.254;5.900;2023-02-11T09:18:47;20.08;;;9.00;;
54139;SDS011;40046;53.254;5.900;2023-02-11T09:21:14;25.73;;;10.18;;
54139;SDS011;40046;53.254;5.900;2023-02-11T09:26:40;23.27;;;9.10;;
54139;SDS011;40046;53.254;5.900;2023-02-11T09:29:12;20.38;;;8.13;;
54139;SDS011;40046;53.254;5.900;2023-02-11T09:31:46;20.38;;;9.13;;
54139;SDS011;40046;53.254;5.900;2023-02-11T09:34:17;15.85;;;7.38;;
54139;SDS011;40046;53.254;5.900;2023-02-11T09:37:06;20.30;;;8.23;;
54139;SDS011;40046;53.254;5.900;2023-02-11T09:40:05;20.00;;;6.32;;
54139;SDS011;40046;53.254;5.900;2023-02-11T09:45:04;24.05;;;9.18;;
54139;SDS011;40046;53.254;5.900;2023-02-11T09:47:35;24.27;;;7.65;;
54139;SDS011;40046;53.254;5.900;2023-02-11T09:50:15;26.38;;;8.55;;
54139;SDS011;40046;53.254;5.900;2023-02-11T09:52:56;18.02;;;5.88;;
54139;SDS011;40046;53.254;5.900;2023-02-11T09:55:42;26.02;;;6.18;;
54139;SDS011;40046;53.254;5.900;2023-02-11T09:58:41;18.92;;;6.65;;
54139;SDS011;40046;53.254;5.900;2023-02-11T10:04:00;35.80;;;10.48;;
54139;SDS011;40046;53.254;5.900;2023-02-11T10:06:37;18.92;;;6.40;;
54139;SDS011;40046;53.254;5.900;2023-02-11T10:09:17;20.23;;;7.07;;
54139;SDS011;40046;53.254;5.900;2023-02-11T10:11:49;21.38;;;5.97;;
54139;SDS011;40046;53.254;5.900;2023-02-11T10:17:06;15.73;;;4.97;;
54139;SDS011;40046;53.254;5.900;2023-02-11T10:19:41;24.25;;;8.43;;
54139;SDS011;40046;53.254;5.900;2023-02-11T10:22:14;22.05;;;7.00;;
54139;SDS011;40046;53.254;5.900;2023-02-11T10:24:47;19.60;;;5.38;;
54139;SDS011;40046;53.254;5.900;2023-02-11T10:27:16;21.52;;;5.13;;
54139;SDS011;40046;53.254;5.900;2023-02-11T10:29:45;20.33;;;5.53;;
54139;SDS011;40046;53.254;5.900;2023-02-11T10:34:59;18.80;;;5.55;;
54139;SDS011;40046;53.254;5.900;2023-02-11T10:37:26;21.70;;;5.53;;
54139;SDS011;40046;53.254;5.900;2023-02-11T10:39:52;23.08;;;5.97;;
54139;SDS011;40046;53.254;5.900;2023-02-11T10:42:18;18.38;;;4.78;;
54139;SDS011;40046;53.254;5.900;2023-02-11T10:44:52;20.25;;;5.13;;
54139;SDS011;40046;53.254;5.900;2023-02-11T10:47:20;19.50;;;4.93;;
54139;SDS011;40046;53.254;5.900;2023-02-11T10:49:47;20.08;;;5.90;;
54139;SDS011;40046;53.254;5.900;2023-02-11T10:54:55;19.92;;;4.65;;
54139;SDS011;40046;53.254;5.900;2023-02-11T10:57:22;18.33;;;3.50;;
54139;SDS011;40046;53.254;5.900;2023-02-11T10:59:54;19.45;;;4.95;;
54139;SDS011;40046;53.254;5.900;2023-02-11T11:02:22;17.27;;;4.63;;
54139;SDS011;40046;53.254;5.900;2023-02-11T11:04:49;16.75;;;3.92;;
54139;SDS011;40046;53.254;5.900;2023-02-11T11:07:30;22.98;;;5.80;;
54139;SDS011;40046;53.254;5.900;2023-02-11T11:10:05;21.92;;;5.22;;
54139;SDS011;40046;53.254;5.900;2023-02-11T11:12:33;19.60;;;4.05;;
54139;SDS011;40046;53.254;5.900;2023-02-11T11:15:00;20.90;;;3.78;;
54139;SDS011;40046;53.254;5.900;2023-02-11T11:17:27;19.05;;;3.45;;
54139;SDS011;40046;53.254;5.900;2023-02-11T11:20:15;12.82;;;3.05;;
54139;SDS011;40046;53.254;5.900;2023-02-11T11:22:40;15.75;;;3.45;;
54139;SDS011;40046;53.254;5.900;2023-02-11T11:25:19;17.38;;;3.03;;
54139;SDS011;40046;53.254;5.900;2023-02-11T11:27:49;14.23;;;4.90;;
54139;SDS011;40046;53.254;5.900;2023-02-11T11:30:16;13.95;;;2.80;;
54139;SDS011;40046;53.254;5.900;2023-02-11T11:32:43;13.57;;;3.83;;
54139;SDS011;40046;53.254;5.900;2023-02-11T11:35:20;18.48;;;4.30;;
54139;SDS011;40046;53.254;5.900;2023-02-11T11:37:51;17.67;;;4.13;;
54139;SDS011;40046;53.254;5.900;2023-02-11T11:40:24;18.52;;;3.83;;
54139;SDS011;40046;53.254;5.900;2023-02-11T11:43:04;13.35;;;3.10;;
54139;SDS011;40046;53.254;5.900;2023-02-11T11:45:30;16.92;;;2.97;;
54139;SDS011;40046;53.254;5.900;2023-02-11T11:48:10;12.98;;;3.95;;
54139;SDS011;40046;53.254;5.900;2023-02-11T11:50:44;17.20;;;2.80;;
54139;SDS011;40046;53.254;5.900;2023-02-11T11:53:19;22.27;;;4.43;;
54139;SDS011;40046;53.254;5.900;2023-02-11T11:58:14;9.57;;;2.38;;
54139;SDS011;40046;53.254;5.900;2023-02-11T12:11:10;21.17;;;3.88;;
54139;SDS011;40046;53.254;5.900;2023-02-11T12:26:21;14.05;;;2.80;;
54139;SDS011;40046;53.254;5.900;2023-02-11T12:55:27;14.48;;;3.03;;
54139;SDS011;40046;53.254;5.900;2023-02-11T12:57:55;14.10;;;2.50;;
54139;SDS011;40046;53.254;5.900;2023-02-11T13:03:14;11.05;;;2.25;;
54139;SDS011;40046;53.254;5.900;2023-02-11T13:05:44;14.63;;;2.30;;
54139;SDS011;40046;53.254;5.900;2023-02-11T13:11:02;16.55;;;3.50;;
54139;SDS011;40046;53.254;5.900;2023-02-11T13:13:33;11.73;;;2.40;;
54139;SDS011;40046;53.254;5.900;2023-02-11T13:16:05;12.20;;;2.90;;
54139;SDS011;40046;53.254;5.900;2023-02-11T13:21:15;13.68;;;3.53;;
54139;SDS011;40046;53.254;5.900;2023-02-11T13:31:15;12.35;;;2.72;;
54139;SDS011;40046;53.254;5.900;2023-02-11T13:33:44;10.50;;;2.75;;
54139;SDS011;40046;53.254;5.900;2023-02-11T13:36:17;12.90;;;4.25;;
54139;SDS011;40046;53.254;5.900;2023-02-11T13:38:54;18.63;;;3.30;;
54139;SDS011;40046;53.254;5.900;2023-02-11T13:41:23;11.73;;;3.25;;
54139;SDS011;40046;53.254;5.900;2023-02-11T13:43:58;10.65;;;2.00;;
54139;SDS011;40046;53.254;5.900;2023-02-11T13:46:26;10.65;;;2.75;;
54139;SDS011;40046;53.254;5.900;2023-02-11T13:48:54;14.40;;;2.72;;
54139;SDS011;40046;53.254;5.900;2023-02-11T13:51:36;11.18;;;1.80;;
54139;SDS011;40046;53.254;5.900;2023-02-11T13:54:04;10.73;;;2.13;;
54139;SDS011;40046;53.254;5.900;2023-02-11T13:56:34;12.07;;;2.33;;
54139;SDS011;40046;53.254;5.900;2023-02-11T13:59:02;12.55;;;3.15;;
54139;SDS011;40046;53.254;5.900;2023-02-11T14:02:00;13.50;;;3.97;;
54139;SDS011;40046;53.254;5.900;2023-02-11T14:11:09;12.85;;;2.30;;
54139;SDS011;40046;53.254;5.900;2023-02-11T14:16:15;10.82;;;2.20;;
54139;SDS011;40046;53.254;5.900;2023-02-11T14:21:21;13.05;;;1.92;;
54139;SDS011;40046;53.254;5.900;2023-02-11T14:23:48;12.68;;;2.53;;
54139;SDS011;40046;53.254;5.900;2023-02-11T14:28:47;17.15;;;3.92;;
54139;SDS011;40046;53.254;5.900;2023-02-11T14:31:19;10.77;;;2.22;;
54139;SDS011;40046;53.254;5.900;2023-02-11T14:33:51;12.20;;;2.25;;
54139;SDS011;40046;53.254;5.900;2023-02-11T14:39:17;13.65;;;2.38;;
54139;SDS011;40046;53.254;5.900;2023-02-11T14:41:46;13.10;;;3.47;;
54139;SDS011;40046;53.254;5.900;2023-02-11T14:44:19;17.75;;;2.70;;
54139;SDS011;40046;53.254;5.900;2023-02-11T14:46:47;12.35;;;2.80;;
54139;SDS011;40046;53.254;5.900;2023-02-11T14:49:33;16.15;;;2.65;;
54139;SDS011;40046;53.254;5.900;2023-02-11T14:54:47;10.02;;;2.08;;
54139;SDS011;40046;53.254;5.900;2023-02-11T14:57:14;20.63;;;2.05;;
54139;SDS011;40046;53.254;5.900;2023-02-11T14:59:57;10.32;;;1.88;;
54139;SDS011;40046;53.254;5.900;2023-02-11T15:02:36;9.65;;;2.30;;
54139;SDS011;40046;53.254;5.900;2023-02-11T15:05:13;16.83;;;2.90;;
54139;SDS011;40046;53.254;5.900;2023-02-11T15:07:48;11.02;;;3.38;;
54139;SDS011;40046;53.254;5.900;2023-02-11T15:10:16;14.82;;;2.92;;
54139;SDS011;40046;53.254;5.900;2023-02-11T15:12:44;12.10;;;2.55;;
54139;SDS011;40046;53.254;5.900;2023-02-11T15:15:13;13.82;;;2.80;;
54139;SDS011;40046;53.254;5.900;2023-02-11T15:17:40;9.88;;;2.40;;
54139;SDS011;40046;53.254;5.900;2023-02-11T15:20:12;11.90;;;2.20;;
54139;SDS011;40046;53.254;5.900;2023-02-11T15:27:42;19.13;;;2.75;;
54139;SDS011;40046;53.254;5.900;2023-02-11T15:32:54;14.50;;;3.60;;
54139;SDS011;40046;53.254;5.900;2023-02-11T15:35:24;14.90;;;2.38;;
54139;SDS011;40046;53.254;5.900;2023-02-11T15:37:53;10.95;;;2.13;;
54139;SDS011;40046;53.254;5.900;2023-02-11T15:40:21;9.40;;;1.63;;
54139;SDS011;40046;53.254;5.900;2023-02-11T15:43:00;19.88;;;4.03;;
54139;SDS011;40046;53.254;5.900;2023-02-11T15:45:30;11.05;;;3.22;;
54139;SDS011;40046;53.254;5.900;2023-02-11T15:48:40;9.40;;;2.33;;
54139;SDS011;40046;53.254;5.900;2023-02-11T15:50:49;17.50;;;2.78;;
54139;SDS011;40046;53.254;5.900;2023-02-11T15:55:42;9.73;;;2.35;;
54139;SDS011;40046;53.254;5.900;2023-02-11T15:58:08;11.98;;;2.80;;
54139;SDS011;40046;53.254;5.900;2023-02-11T16:00:36;19.60;;;3.45;;
54139;SDS011;40046;53.254;5.900;2023-02-11T16:03:03;15.57;;;2.50;;
54139;SDS011;40046;53.254;5.900;2023-02-11T16:05:34;11.95;;;2.13;;
54139;SDS011;40046;53.254;5.900;2023-02-11T16:08:12;15.68;;;2.72;;
54139;SDS011;40046;53.254;5.900;2023-02-11T16:10:51;13.70;;;2.47;;
54139;SDS011;40046;53.254;5.900;2023-02-11T16:13:18;14.35;;;2.30;;
54139;SDS011;40046;53.254;5.900;2023-02-11T16:15:57;11.60;;;2.50;;
54139;SDS011;40046;53.254;5.900;2023-02-11T16:18:36;12.57;;;2.33;;
54139;SDS011;40046;53.254;5.900;2023-02-11T16:21:03;11.07;;;2.95;;
54139;SDS011;40046;53.254;5.900;2023-02-11T16:23:39;13.23;;;2.67;;
54139;SDS011;40046;53.254;5.900;2023-02-11T16:26:10;15.43;;;3.40;;
54139;SDS011;40046;53.254;5.900;2023-02-11T16:28:37;15.85;;;3.08;;
54139;SDS011;40046;53.254;5.900;2023-02-11T16:31:04;15.90;;;3.00;;
54139;SDS011;40046;53.254;5.900;2023-02-11T16:33:30;14.80;;;3.45;;
54139;SDS011;40046;53.254;5.900;2023-02-11T16:35:57;14.13;;;3.60;;
54139;SDS011;40046;53.254;5.900;2023-02-11T16:38:26;11.23;;;3.63;;
54139;SDS011;40046;53.254;5.900;2023-02-11T16:40:52;16.52;;;4.07;;
54139;SDS011;40046;53.254;5.900;2023-02-11T16:43:18;19.50;;;6.90;;
54139;SDS011;40046;53.254;5.900;2023-02-11T16:45:45;23.27;;;7.50;;
54139;SDS011;40046;53.254;5.900;2023-02-11T16:48:12;16.08;;;4.93;;
54139;SDS011;40046;53.254;5.900;2023-02-11T16:50:42;18.08;;;3.03;;
54139;SDS011;40046;53.254;5.900;2023-02-11T16:53:08;17.95;;;3.22;;
54139;SDS011;40046;53.254;5.900;2023-02-11T16:55:35;17.88;;;4.35;;
54139;SDS011;40046;53.254;5.900;2023-02-11T16:58:01;16.90;;;3.80;;
54139;SDS011;40046;53.254;5.900;2023-02-11T17:00:28;15.90;;;3.63;;
54139;SDS011;40046;53.254;5.900;2023-02-11T17:02:54;17.60;;;3.97;;
54139;SDS011;40046;53.254;5.900;2023-02-11T17:05:21;16.80;;;4.18;;
54139;SDS011;40046;53.254;5.900;2023-02-11T17:07:47;16.50;;;3.97;;
54139;SDS011;40046;53.254;5.900;2023-02-11T17:10:18;15.15;;;3.75;;
54139;SDS011;40046;53.254;5.900;2023-02-11T17:12:45;21.20;;;3.88;;
54139;SDS011;40046;53.254;5.900;2023-02-11T17:15:12;17.23;;;5.03;;
54139;SDS011;40046;53.254;5.900;2023-02-11T17:17:38;20.35;;;8.00;;
54139;SDS011;40046;53.254;5.900;2023-02-11T17:20:05;15.85;;;4.55;;
54139;SDS011;40046;53.254;5.900;2023-02-11T17:22:31;18.65;;;5.05;;
54139;SDS011;40046;53.254;5.900;2023-02-11T17:24:57;15.98;;;5.53;;
54139;SDS011;40046;53.254;5.900;2023-02-11T17:27:23;17.55;;;6.13;;
54139;SDS011;40046;53.254;5.900;2023-02-11T17:29:50;16.15;;;4.78;;
54139;SDS011;40046;53.254;5.900;2023-02-11T17:32:16;15.07;;;3.08;;
54139;SDS011;40046;53.254;5.900;2023-02-11T17:34:42;19.60;;;3.40;;
54139;SDS011;40046;53.254;5.900;2023-02-11T17:37:08;20.13;;;4.00;;
54139;SDS011;40046;53.254;5.900;2023-02-11T17:39:35;25.73;;;3.58;;
54139;SDS011;40046;53.254;5.900;2023-02-11T17:42:01;14.43;;;3.28;;
54139;SDS011;40046;53.254;5.900;2023-02-11T17:44:28;15.50;;;3.15;;
54139;SDS011;40046;53.254;5.900;2023-02-11T17:46:54;19.45;;;4.93;;
54139;SDS011;40046;53.254;5.900;2023-02-11T17:49:20;20.02;;;5.68;;
54139;SDS011;40046;53.254;5.900;2023-02-11T17:51:46;17.17;;;4.18;;
54139;SDS011;40046;53.254;5.900;2023-02-11T17:54:13;13.38;;;4.25;;
54139;SDS011;40046;53.254;5.900;2023-02-11T17:56:40;11.93;;;3.05;;
54139;SDS011;40046;53.254;5.900;2023-02-11T17:59:07;23.20;;;4.72;;